Time;durP1;ratioP1;P1;durP2;ratioP2;P2;SDS_P1;SDS_P2;PMS_P1;PMS_P2;Temp;Humidity;BMP_temperature;BMP_pressure;BME280_temperature;BME280_humidity;BME280_pressure;Samples;Min_cycle;Max_cycle;Signal;HPM_P1;HPM_P2
2021/07/17 00:02:21;;;;;;;4.50;2.60;;;;;;;18.29;76.20;102522.34;5006799;28;20038;-82
2021/07/17 00:04:47;;;;;;;6.00;2.97;;;;;;;18.29;75.94;102526.94;4997416;28;20119;-84
2021/07/17 00:07:13;;;;;;;7.93;2.75;;;;;;;18.14;76.53;102507.84;5006448;28;20107;-85
2021/07/17 00:09:38;;;;;;;6.57;3.08;;;;;;;18.33;76.07;102542.72;5007796;28;20025;-84
2021/07/17 00:12:04;;;;;;;4.22;2.83;;;;;;;18.34;75.90;102543.59;5007922;28;20038;-85
2021/07/17 00:14:30;;;;;;;7.68;2.80;;;;;;;18.29;76.10;102563.19;5007832;28;20101;-84
2021/07/17 00:16:55;;;;;;;10.07;3.15;;;;;;;18.17;76.40;102551.03;5010661;28;20044;-85
2021/07/17 00:19:21;;;;;;;5.68;3.10;;;;;;;18.08;76.96;102549.41;4990593;28;20033;-83
2021/07/17 00:21:47;;;;;;;9.55;2.97;;;;;;;17.98;77.28;102547.75;4993967;28;20442;-83
2021/07/17 00:24:13;;;;;;;5.07;2.90;;;;;;;18.04;77.46;102559.78;5010231;28;20037;-84
2021/07/17 00:26:38;;;;;;;8.15;3.00;;;;;;;17.97;76.90;102546.09;5010983;28;20022;-82
2021/07/17 00:29:03;;;;;;;7.55;3.13;;;;;;;18.03;76.78;102552.66;5008838;28;20033;-82
2021/07/17 00:31:29;;;;;;;8.73;3.40;;;;;;;17.97;77.17;102551.53;5007383;28;20037;-84
2021/07/17 00:33:57;;;;;;;9.05;3.15;;;;;;;17.93;77.44;102557.50;5009817;28;20036;-83
2021/07/17 00:36:22;;;;;;;6.60;3.00;;;;;;;17.92;77.78;102559.38;5006955;28;20033;-83
2021/07/17 00:38:48;;;;;;;6.53;2.95;;;;;;;17.93;77.93;102555.63;5011092;28;20025;-83
2021/07/17 00:41:13;;;;;;;5.68;2.92;;;;;;;17.92;78.01;102564.81;5012409;28;20034;-82
2021/07/17 00:43:38;;;;;;;9.82;3.92;;;;;;;17.93;77.80;102571.09;5013040;28;20032;-83
2021/07/17 00:46:04;;;;;;;5.45;3.13;;;;;;;17.88;77.98;102566.19;5010494;28;20097;-83
2021/07/17 00:48:30;;;;;;;4.72;2.85;;;;;;;17.80;78.17;102558.09;4998933;28;20109;-83
2021/07/17 00:50:56;;;;;;;6.82;3.03;;;;;;;17.85;78.35;102563.84;4998163;28;20088;-82
2021/07/17 00:53:21;;;;;;;7.47;3.20;;;;;;;17.82;77.74;102568.81;5001182;28;20018;-83
2021/07/17 00:55:49;;;;;;;6.93;3.03;;;;;;;17.74;78.24;102562.34;5011602;28;20417;-83
2021/07/17 00:58:16;;;;;;;8.85;3.10;;;;;;;17.69;78.30;102563.91;5001178;28;20049;-83
2021/07/17 01:00:42;;;;;;;5.32;2.97;;;;;;;17.71;77.90;102557.28;5015342;28;20117;-83
2021/07/17 01:03:08;;;;;;;5.07;2.97;;;;;;;17.67;78.28;102555.06;5010816;28;20096;-82
2021/07/17 01:05:35;;;;;;;7.57;3.08;;;;;;;17.66;78.23;102550.69;4998233;28;20502;-83
2021/07/17 01:08:00;;;;;;;8.90;3.00;;;;;;;17.57;77.55;102536.25;5010282;28;20026;-83
2021/07/17 01:10:27;;;;;;;5.57;2.90;;;;;;;17.61;78.02;102550.38;5019889;28;20027;-83
2021/07/17 01:12:53;;;;;;;6.93;3.00;;;;;;;17.57;77.95;102550.72;4999552;28;20030;-83
2021/07/17 01:15:18;;;;;;;6.43;3.15;;;;;;;17.47;78.38;102536.50;5011687;28;20101;-83
2021/07/17 01:17:45;;;;;;;5.47;3.05;;;;;;;17.49;78.22;102536.31;5032873;28;20057;-83
2021/07/17 01:20:13;;;;;;;6.47;3.20;;;;;;;17.52;78.81;102549.56;5007708;28;20026;-83
2021/07/17 01:22:39;;;;;;;6.13;3.30;;;;;;;17.45;79.06;102538.53;5002322;28;20068;-82
2021/07/17 01:25:13;;;;;;;5.70;2.83;;;;;;;17.46;79.21;102556.53;5015261;28;20125;-83
2021/07/17 01:27:39;;;;;;;4.03;2.80;;;;;;;17.43;78.84;102539.75;5007113;28;20054;-83
2021/07/17 01:30:13;;;;;;;6.93;2.95;;;;;;;17.43;78.69;102547.91;5017539;28;20034;-83
2021/07/17 01:32:38;;;;;;;4.40;2.63;;;;;;;17.28;78.81;102545.94;4995420;28;20033;-82
2021/07/17 01:35:04;;;;;;;6.30;2.83;;;;;;;17.16;79.22;102541.06;5014062;28;20026;-83
2021/07/17 01:37:29;;;;;;;4.75;2.30;;;;;;;17.13;79.06;102548.53;5027085;28;20029;-83
2021/07/17 01:39:55;;;;;;;5.93;3.25;;;;;;;17.04;79.50;102538.72;5009181;28;20115;-83
2021/07/17 01:42:21;;;;;;;9.30;3.03;;;;;;;17.02;79.59;102545.38;5001082;28;20026;-83
2021/07/17 01:44:46;;;;;;;5.40;3.13;;;;;;;16.98;79.83;102542.13;5015708;28;20026;-82
2021/07/17 01:47:13;;;;;;;4.70;2.75;;;;;;;16.95;80.11;102555.22;5017099;28;20026;-83
2021/07/17 01:49:39;;;;;;;7.60;3.00;;;;;;;16.87;80.12;102547.94;5010930;28;20400;-83
2021/07/17 01:52:05;;;;;;;5.85;2.78;;;;;;;16.87;80.37;102554.22;5009038;28;20092;-83
2021/07/17 01:54:35;;;;;;;6.53;2.75;;;;;;;16.79;80.55;102551.53;5014170;28;20025;-82
2021/07/17 01:57:06;;;;;;;4.65;3.00;;;;;;;16.76;80.20;102546.41;5013917;28;20035;-83
2021/07/17 01:59:40;;;;;;;5.75;3.00;;;;;;;16.73;80.38;102549.47;5023717;28;20030;-83
2021/07/17 02:02:09;;;;;;;5.93;2.78;;;;;;;16.67;80.66;102542.88;5006023;28;20029;-83
2021/07/17 02:04:35;;;;;;;7.00;2.95;;;;;;;16.68;80.45;102547.28;5019105;28;20060;-83
2021/07/17 02:07:01;;;;;;;5.93;2.60;;;;;;;16.71;79.99;102527.91;5013679;28;20018;-82
2021/07/17 02:09:26;;;;;;;5.25;2.67;;;;;;;16.86;79.54;102547.09;4994527;28;20034;-83
2021/07/17 02:11:52;;;;;;;4.47;2.65;;;;;;;16.90;79.05;102547.59;5010562;28;20030;-83
2021/07/17 02:14:17;;;;;;;8.68;2.95;;;;;;;16.79;79.30;102535.22;5005363;28;20033;-83
2021/07/17 02:16:43;;;;;;;4.28;2.70;;;;;;;16.83;79.07;102546.59;5012754;28;20545;-83
2021/07/17 02:19:20;;;;;;;7.88;2.65;;;;;;;16.88;79.42;102555.06;5021333;28;20377;-83
2021/07/17 02:21:50;;;;;;;5.50;2.42;;;;;;;16.82;79.63;102555.78;5004054;28;20041;-82
2021/07/17 02:24:16;;;;;;;4.72;2.58;;;;;;;16.79;79.50;102551.53;5001977;28;20030;-80
2021/07/17 02:26:43;;;;;;;7.90;2.97;;;;;;;16.76;79.39;102535.53;5007767;28;20515;-83
2021/07/17 02:29:10;;;;;;;7.20;3.13;;;;;;;16.85;79.40;102549.97;4994570;28;20032;-81
2021/07/17 02:31:36;;;;;;;7.28;3.10;;;;;;;16.81;79.34;102545.94;5009889;28;20036;-81
2021/07/17 02:34:03;;;;;;;6.28;2.97;;;;;;;16.71;79.66;102544.22;5018560;28;20026;-84
2021/07/17 02:36:29;;;;;;;7.88;2.67;;;;;;;16.58;80.12;102543.06;5006075;28;20053;-82
2021/07/17 02:38:54;;;;;;;5.78;3.30;;;;;;;16.47;80.48;102546.97;5016769;28;20441;-84
2021/07/17 02:41:21;;;;;;;5.65;2.65;;;;;;;16.40;80.20;102540.53;4990128;28;20047;-82
2021/07/17 02:43:47;;;;;;;7.15;2.30;;;;;;;16.30;80.86;102542.56;5012321;28;20026;-83
2021/07/17 02:46:13;;;;;;;6.15;2.60;;;;;;;16.22;81.51;102537.97;5008478;28;20391;-83
2021/07/17 02:48:38;;;;;;;3.85;2.42;;;;;;;16.18;81.12;102526.63;4989180;28;20144;-82
2021/07/17 02:51:04;;;;;;;4.15;2.30;;;;;;;16.29;80.74;102535.44;5004391;28;20041;-83
2021/07/17 02:53:29;;;;;;;6.65;2.30;;;;;;;16.22;81.02;102535.25;4989524;28;20026;-82
2021/07/17 02:55:55;;;;;;;6.20;2.75;;;;;;;16.30;80.22;102539.84;5006126;28;20026;-82
2021/07/17 02:58:20;;;;;;;5.32;3.08;;;;;;;16.26;80.08;102528.50;5007869;28;20075;-82
2021/07/17 03:00:47;;;;;;;6.50;2.85;;;;;;;16.21;79.95;102514.56;4993018;28;20025;-83
2021/07/17 03:03:13;;;;;;;5.18;2.90;;;;;;;16.25;80.03;102534.94;5007682;28;20076;-82
2021/07/17 03:05:39;;;;;;;7.38;2.72;;;;;;;16.05;80.68;102510.00;5008425;28;20065;-82
2021/07/17 03:08:05;;;;;;;6.43;3.00;;;;;;;16.14;79.97;102529.84;5004716;28;20041;-82
2021/07/17 03:10:32;;;;;;;6.60;3.10;;;;;;;16.17;80.02;102524.94;5006527;28;20026;-82
2021/07/17 03:12:58;;;;;;;8.13;2.85;;;;;;;16.22;79.95;102536.13;5008931;28;20022;-84
2021/07/17 03:15:23;;;;;;;8.00;3.00;;;;;;;16.18;80.24;102526.63;5009813;28;20859;-83
2021/07/17 03:17:48;;;;;;;7.55;3.28;;;;;;;16.21;80.34;102520.00;5011253;28;20091;-83
2021/07/17 03:20:14;;;;;;;6.57;2.95;;;;;;;16.29;79.93;102530.84;4995723;28;20492;-83
2021/07/17 03:22:40;;;;;;;5.55;2.85;;;;;;;16.26;80.15;102526.63;5007589;28;20037;-83
2021/07/17 03:25:07;;;;;;;5.50;2.50;;;;;;;16.25;80.12;102533.06;5018474;28;20033;-82
2021/07/17 03:27:33;;;;;;;6.00;2.88;;;;;;;16.22;80.29;102525.28;4994837;28;20030;-84
2021/07/17 03:29:59;;;;;;;4.38;3.13;;;;;;;16.19;80.02;102533.72;5010525;28;20022;-84
2021/07/17 03:32:26;;;;;;;8.25;2.90;;;;;;;16.14;80.24;102530.72;5009871;28;20080;-82
2021/07/17 03:34:52;;;;;;;6.38;2.47;;;;;;;16.02;80.23;102527.47;5010532;28;20033;-84
2021/07/17 03:37:18;;;;;;;4.85;2.40;;;;;;;16.00;80.40;102532.19;5010114;28;20026;-82
2021/07/17 03:39:43;;;;;;;4.00;2.00;;;;;;;15.96;80.64;102533.56;5012097;28;20471;-82
2021/07/17 03:42:09;;;;;;;3.92;2.10;;;;;;;15.74;80.86;102516.06;4995727;28;20400;-83
2021/07/17 03:44:34;;;;;;;6.97;2.30;;;;;;;15.79;80.53;102516.41;5009930;28;20088;-83
2021/07/17 03:47:00;;;;;;;6.22;2.53;;;;;;;15.87;80.35;102522.88;5010692;28;20026;-83
2021/07/17 03:49:25;;;;;;;5.75;2.25;;;;;;;15.87;80.04;102522.88;4997266;28;20684;-83
2021/07/17 03:51:50;;;;;;;6.07;2.47;;;;;;;15.81;80.32;102514.38;5009090;28;20022;-83
2021/07/17 03:54:16;;;;;;;5.15;2.65;;;;;;;15.89;80.12;102531.69;5011231;28;20036;-83
2021/07/17 03:56:42;;;;;;;8.00;3.20;;;;;;;15.79;80.51;102513.69;5026068;28;20491;-83
2021/07/17 03:59:07;;;;;;;4.78;2.67;;;;;;;15.83;80.39;102525.09;5003912;28;20657;-82
2021/07/17 04:01:33;;;;;;;4.70;2.63;;;;;;;15.64;80.73;102493.66;4992854;28;20025;-82
2021/07/17 04:03:58;;;;;;;4.53;2.50;;;;;;;15.78;80.76;102524.72;5009893;28;20025;-82
2021/07/17 04:06:23;;;;;;;5.18;2.75;;;;;;;15.74;80.72;102517.94;4994792;28;20030;-82
2021/07/17 04:08:49;;;;;;;4.95;2.70;;;;;;;15.76;80.17;102522.19;5007257;28;20045;-83
2021/07/17 04:11:14;;;;;;;7.15;3.00;;;;;;;15.71;81.19;102526.41;5010112;28;20037;-82
2021/07/17 04:13:40;;;;;;;5.78;3.03;;;;;;;15.71;81.15;102527.25;5008021;28;20026;-82
2021/07/17 04:16:05;;;;;;;5.68;3.10;;;;;;;15.67;81.32;102523.16;5003464;28;20871;-83
2021/07/17 04:18:30;;;;;;;6.10;2.83;;;;;;;15.62;81.55;102517.38;5003972;28;20113;-82
2021/07/17 04:20:56;;;;;;;8.65;2.70;;;;;;;15.61;81.30;102515.66;5008496;28;20045;-82
2021/07/17 04:23:21;;;;;;;6.03;2.90;;;;;;;15.66;81.18;102510.59;5007004;28;20026;-83
2021/07/17 04:25:47;;;;;;;5.72;2.90;;;;;;;15.69;80.90;102510.31;4994530;28;20467;-83
2021/07/17 04:28:12;;;;;;;6.43;3.45;;;;;;;15.74;81.01;102518.78;5011718;28;20048;-82
2021/07/17 04:30:37;;;;;;;6.90;2.80;;;;;;;15.75;80.78;102512.34;5008241;28;20038;-82
2021/07/17 04:33:03;;;;;;;7.18;2.60;;;;;;;15.76;81.00;102518.63;5007809;28;20026;-83
2021/07/17 04:35:28;;;;;;;5.15;2.72;;;;;;;15.72;80.94;102507.28;5008061;28;20042;-82
2021/07/17 04:37:54;;;;;;;7.65;3.03;;;;;;;15.73;80.77;102503.53;5010411;28;20033;-83
2021/07/17 04:40:19;;;;;;;8.48;2.80;;;;;;;15.70;80.88;102509.28;5006899;28;20041;-83
2021/07/17 04:42:45;;;;;;;6.45;2.60;;;;;;;15.69;80.53;102523.00;5010539;28;20013;-83
2021/07/17 04:45:11;;;;;;;5.18;2.45;;;;;;;15.56;80.44;102512.63;5008274;28;20918;-82
2021/07/17 04:47:36;;;;;;;4.28;2.25;;;;;;;15.46;80.66;102503.78;5012143;28;20029;-83
2021/07/17 04:50:03;;;;;;;6.40;2.00;;;;;;;15.38;80.82;102510.88;4991591;28;20461;-82
2021/07/17 04:52:30;;;;;;;4.32;2.20;;;;;;;15.38;80.38;102512.75;5007501;28;20083;-82
2021/07/17 04:54:55;;;;;;;8.98;2.70;;;;;;;15.32;80.79;102514.25;5008381;28;20040;-84
2021/07/17 04:57:21;;;;;;;5.00;2.20;;;;;;;15.19;80.96;102497.63;5031334;28;20454;-83
2021/07/17 04:59:46;;;;;;;3.58;2.30;;;;;;;15.29;80.77;102508.28;5011218;28;20539;-83
2021/07/17 05:02:12;;;;;;;7.20;2.40;;;;;;;15.27;81.19;102504.91;5013057;28;20067;-83
2021/07/17 05:04:37;;;;;;;8.00;2.63;;;;;;;15.25;81.21;102502.38;5002691;28;20034;-83
2021/07/17 05:07:03;;;;;;;7.72;3.00;;;;;;;15.24;81.55;102507.94;4998792;28;20034;-83
2021/07/17 05:09:28;;;;;;;6.22;2.50;;;;;;;15.22;82.16;102504.56;5015134;28;20025;-83
2021/07/17 05:11:54;;;;;;;5.00;2.97;;;;;;;15.26;82.18;102511.34;5009594;28;20179;-81
2021/07/17 05:14:19;;;;;;;11.07;3.10;;;;;;;15.29;82.35;102501.00;5007229;28;20161;-82
2021/07/17 05:16:45;;;;;;;7.00;2.65;;;;;;;15.35;81.87;102505.78;5005961;28;20503;-84
2021/07/17 05:19:10;;;;;;;6.15;2.83;;;;;;;15.43;81.77;102504.09;5008741;28;20033;-81
2021/07/17 05:21:36;;;;;;;6.05;2.40;;;;;;;15.47;82.52;102516.31;5005635;28;20168;-81
2021/07/17 05:24:03;;;;;;;6.32;2.47;;;;;;;15.44;82.31;102517.50;5013513;28;20060;-82
2021/07/17 05:26:28;;;;;;;7.97;2.90;;;;;;;15.46;82.32;102511.94;4994756;28;20036;-83
2021/07/17 05:28:54;;;;;;;6.72;2.90;;;;;;;15.53;82.14;102512.94;5007291;28;20033;-82
2021/07/17 05:31:19;;;;;;;5.53;2.92;;;;;;;15.66;81.91;102516.03;4991644;28;20405;-82
2021/07/17 05:33:45;;;;;;;6.32;2.60;;;;;;;15.74;81.87;102518.78;5004612;28;20026;-82
2021/07/17 05:36:10;;;;;;;8.70;2.65;;;;;;;15.81;81.81;102514.38;5007862;28;20411;-83
2021/07/17 05:38:36;;;;;;;8.13;3.55;;;;;;;15.86;81.99;102502.19;5005725;28;20041;-83
2021/07/17 05:41:01;;;;;;;7.25;3.05;;;;;;;15.98;81.71;102514.41;4990320;28;20037;-82
2021/07/17 05:43:27;;;;;;;10.63;3.05;;;;;;;16.05;81.64;102510.84;5023440;28;20033;-83
2021/07/17 05:45:54;;;;;;;5.30;2.53;;;;;;;16.06;81.84;102517.09;5006889;28;20030;-83
2021/07/17 05:48:20;;;;;;;6.90;2.70;;;;;;;16.12;81.81;102518.31;5003118;28;20072;-83
2021/07/17 05:50:45;;;;;;;7.18;2.50;;;;;;;16.10;82.05;102513.06;4990876;28;20037;-82
2021/07/17 05:53:11;;;;;;;7.97;2.90;;;;;;;16.10;82.45;102506.78;4992412;28;20031;-83
2021/07/17 05:55:36;;;;;;;7.95;2.95;;;;;;;16.28;82.22;102526.47;4987183;28;20086;-84
2021/07/17 05:58:02;;;;;;;6.57;2.90;;;;;;;16.36;82.19;102522.88;5002402;28;20472;-83
2021/07/17 06:00:28;;;;;;;7.25;3.40;;;;;;;16.45;82.47;102516.41;5010054;28;20475;-83
2021/07/17 06:02:54;;;;;;;9.02;3.75;;;;;;;16.60;81.83;102520.13;5003994;28;20018;-82
2021/07/17 06:05:19;;;;;;;6.50;3.08;;;;;;;16.73;81.94;102516.03;5017807;28;20025;-83
2021/07/17 06:07:45;;;;;;;5.68;3.17;;;;;;;16.58;81.76;102480.59;5003187;28;20022;-82
2021/07/17 06:10:11;;;;;;;5.82;3.30;;;;;;;16.90;81.99;102531.28;4988765;28;20028;-83
2021/07/17 06:12:36;;;;;;;9.25;3.25;;;;;;;17.01;81.96;102517.31;5004386;28;20037;-83
2021/07/17 06:15:04;;;;;;;8.88;3.58;;;;;;;17.20;81.74;102529.66;5006252;28;20515;-83
2021/07/17 06:17:30;;;;;;;5.80;3.30;;;;;;;17.19;81.85;102521.69;5006362;28;20026;-82
2021/07/17 06:19:55;;;;;;;8.02;3.60;;;;;;;17.22;82.27;102522.16;5006716;28;20026;-81
2021/07/17 06:22:21;;;;;;;8.75;4.10;;;;;;;17.38;82.85;102529.41;5010806;28;20026;-81
2021/07/17 06:24:46;;;;;;;9.68;4.75;;;;;;;17.44;82.71;102527.84;5007886;28;20149;-82
2021/07/17 06:27:12;;;;;;;8.82;3.92;;;;;;;17.57;82.77;102533.53;5013645;28;20428;-81
2021/07/17 06:29:37;;;;;;;17.77;3.97;;;;;;;17.56;82.86;102527.25;4994435;28;20029;-82
2021/07/17 06:32:04;;;;;;;7.93;3.78;;;;;;;17.63;83.33;102532.00;5017162;28;20477;-81
2021/07/17 06:34:30;;;;;;;7.28;4.03;;;;;;;17.64;83.11;102526.38;5005350;28;20034;-82
2021/07/17 06:36:55;;;;;;;6.50;3.85;;;;;;;17.76;83.12;102533.09;5006321;28;20036;-82
2021/07/17 06:39:21;;;;;;;9.70;3.58;;;;;;;17.88;83.04;102541.72;4989903;28;20505;-82
2021/07/17 06:41:46;;;;;;;12.43;6.20;;;;;;;17.98;82.78;102536.03;5002615;28;20172;-82
2021/07/17 06:44:12;;;;;;;8.55;4.20;;;;;;;18.15;82.41;102547.63;5006900;28;20057;-81
2021/07/17 06:46:37;;;;;;;9.85;4.25;;;;;;;18.27;82.01;102545.34;5009118;28;20061;-83
2021/07/17 06:49:03;;;;;;;9.13;4.40;;;;;;;18.37;81.92;102544.06;4989071;28;20025;-83
2021/07/17 06:51:28;;;;;;;10.13;4.97;;;;;;;18.42;81.94;102546.22;5003693;28;20030;-81
2021/07/17 06:53:54;;;;;;;9.88;4.88;;;;;;;18.57;81.50;102547.09;5009551;28;20046;-84
2021/07/17 06:56:21;;;;;;;10.07;4.97;;;;;;;18.74;80.85;102546.94;5018621;28;20030;-82
2021/07/17 06:58:46;;;;;;;9.65;4.82;;;;;;;18.76;80.97;102558.50;5000347;28;20540;-82
2021/07/17 07:01:12;;;;;;;9.05;4.43;;;;;;;18.86;81.12;102559.09;5011200;28;20120;-80
2021/07/17 07:03:37;;;;;;;7.40;4.30;;;;;;;18.95;80.68;102555.25;5010785;28;20033;-82
2021/07/17 07:06:04;;;;;;;9.20;5.18;;;;;;;18.89;80.24;102540.50;5013417;28;20061;-82
2021/07/17 07:08:31;;;;;;;11.75;5.75;;;;;;;19.05;79.56;102539.47;5013749;28;20033;-82
2021/07/17 07:10:56;;;;;;;9.82;4.72;;;;;;;19.19;79.81;102550.53;4997635;28;20036;-82
2021/07/17 07:13:24;;;;;;;8.43;4.65;;;;;;;19.32;79.19;102551.56;5025086;28;20025;-81
2021/07/17 07:15:49;;;;;;;9.98;5.57;;;;;;;19.45;79.17;102559.06;5006855;28;20107;-80
2021/07/17 07:18:15;;;;;;;9.38;4.97;;;;;;;19.50;79.18;102558.47;4999521;28;20029;-80
2021/07/17 07:20:41;;;;;;;11.68;5.47;;;;;;;19.64;78.50;102564.97;5009047;28;20060;-80
2021/07/17 07:23:06;;;;;;;11.07;4.88;;;;;;;19.58;78.16;102550.16;4995736;28;20093;-82
2021/07/17 07:25:32;;;;;;;12.27;5.50;;;;;;;19.61;78.45;102538.91;5008483;28;20040;-83
2021/07/17 07:27:57;;;;;;;9.00;5.63;;;;;;;19.76;77.89;102545.16;4995577;28;20037;-82
2021/07/17 07:30:23;;;;;;;10.88;5.35;;;;;;;20.01;78.18;102565.81;5018940;28;20065;-83
2021/07/17 07:32:49;;;;;;;9.70;5.47;;;;;;;20.10;77.59;102572.81;5010796;28;20034;-83
2021/07/17 07:35:22;;;;;;;8.38;5.18;;;;;;;20.24;76.96;102560.13;5007232;28;20035;-80
2021/07/17 07:37:50;;;;;;;10.45;5.70;;;;;;;20.31;76.88;102561.88;5012619;28;20026;-79
2021/07/17 07:40:16;;;;;;;10.93;4.95;;;;;;;20.47;76.46;102570.84;5024396;28;20030;-80
2021/07/17 07:42:42;;;;;;;7.13;5.28;;;;;;;20.63;75.54;102567.84;5017611;28;20030;-78
2021/07/17 07:45:08;;;;;;;10.50;5.95;;;;;;;20.69;75.87;102571.66;5009218;28;20096;-79
2021/07/17 07:47:33;;;;;;;13.55;5.60;;;;;;;20.81;75.77;102564.63;5008471;28;20125;-80
2021/07/17 07:49:59;;;;;;;13.60;5.50;;;;;;;20.80;76.03;102558.31;5018348;28;20064;-80
2021/07/17 07:52:26;;;;;;;13.00;5.75;;;;;;;20.95;74.94;102573.75;5019275;28;20034;-80
2021/07/17 07:54:52;;;;;;;11.82;5.70;;;;;;;20.98;74.48;102565.97;5017380;28;20033;-79
2021/07/17 07:57:17;;;;;;;10.30;5.80;;;;;;;21.15;74.74;102579.34;5018606;28;20052;-80
2021/07/17 07:59:43;;;;;;;10.30;6.00;;;;;;;21.21;74.54;102575.78;5021422;28;20030;-79
2021/07/17 08:02:09;;;;;;;12.75;5.78;;;;;;;21.20;74.24;102576.84;5018832;28;20629;-80
2021/07/17 08:04:34;;;;;;;13.75;6.13;;;;;;;21.27;73.92;102578.53;5020260;28;20040;-80
2021/07/17 08:06:59;;;;;;;12.57;7.22;;;;;;;21.38;74.11;102579.06;5014699;28;20033;-80
2021/07/17 08:09:25;;;;;;;13.00;6.40;;;;;;;21.46;73.91;102584.34;5019431;28;20030;-79
2021/07/17 08:11:51;;;;;;;12.75;5.70;;;;;;;21.55;73.61;102580.41;5022262;28;20027;-79
2021/07/17 08:14:17;;;;;;;8.90;5.63;;;;;;;21.57;73.57;102580.22;5023464;28;20022;-80
2021/07/17 08:16:42;;;;;;;13.27;6.20;;;;;;;21.55;73.73;102568.63;5018729;28;20029;-80
2021/07/17 08:19:08;;;;;;;13.35;6.57;;;;;;;21.67;72.88;102577.91;5018754;28;20026;-79
2021/07/17 08:21:33;;;;;;;11.05;6.47;;;;;;;21.84;72.58;102581.97;5019690;28;20018;-80
2021/07/17 08:23:59;;;;;;;11.30;6.55;;;;;;;21.95;71.97;102580.50;5008255;28;20038;-80
2021/07/17 08:26:25;;;;;;;12.77;6.53;;;;;;;22.02;71.73;102581.38;5014135;28;20034;-79
2021/07/17 08:28:50;;;;;;;12.10;6.43;;;;;;;22.07;71.27;102569.78;5012457;28;20030;-79
2021/07/17 08:31:15;;;;;;;11.35;6.28;;;;;;;22.26;71.31;102576.38;5012649;28;20381;-78
2021/07/17 08:33:41;;;;;;;11.77;6.32;;;;;;;22.41;70.68;102573.44;5010668;28;20026;-79
2021/07/17 08:36:06;;;;;;;11.60;6.65;;;;;;;22.57;70.26;102582.09;5014133;28;20457;-79
2021/07/17 08:38:32;;;;;;;12.50;6.55;;;;;;;22.63;70.18;102572.16;5010659;28;20026;-78
2021/07/17 08:41:00;;;;;;;12.50;7.00;;;;;;;22.67;70.85;102570.66;5013487;28;20022;-78
2021/07/17 08:43:25;;;;;;;14.35;6.22;;;;;;;22.76;70.29;102571.31;5028996;28;20026;-78
2021/07/17 08:45:51;;;;;;;13.60;6.75;;;;;;;22.85;69.74;102569.19;5019103;28;20088;-79
2021/07/17 08:48:21;;;;;;;10.77;6.47;;;;;;;22.95;69.60;102572.31;5014231;28;20026;-79
2021/07/17 08:50:47;;;;;;;11.40;6.85;;;;;;;23.02;69.74;102564.94;5017881;28;20022;-78
2021/07/17 08:53:16;;;;;;;12.73;6.53;;;;;;;23.14;69.20;102552.25;5016254;28;20061;-79
2021/07/17 08:55:41;;;;;;;13.93;6.95;;;;;;;23.35;68.91;102553.03;5016927;28;20152;-79
2021/07/17 08:58:07;;;;;;;13.40;6.55;;;;;;;23.55;68.39;102553.78;5021360;28;20045;-78
2021/07/17 09:00:35;;;;;;;11.02;7.18;;;;;;;23.73;67.16;102555.81;5019335;28;20032;-79
2021/07/17 09:03:04;;;;;;;12.98;7.35;;;;;;;23.90;66.99;102565.22;5016821;28;20018;-79
2021/07/17 09:05:32;;;;;;;12.80;6.88;;;;;;;24.01;66.49;102562.84;5017543;28;20034;-79
2021/07/17 09:07:58;;;;;;;13.23;6.78;;;;;;;24.06;66.43;102543.78;5019080;28;20352;-79
2021/07/17 09:10:34;;;;;;;12.43;7.60;;;;;;;24.26;65.23;102551.84;5036474;28;20251;-78
2021/07/17 09:13:18;;;;;;;14.15;7.20;;;;;;;24.38;65.69;102549.22;5016202;28;20034;-79
2021/07/17 09:15:55;;;;;;;13.82;7.18;;;;;;;24.45;65.05;102542.63;5020982;28;20438;-79
2021/07/17 09:18:21;;;;;;;11.13;6.90;;;;;;;24.60;64.71;102544.19;5020996;28;20036;-79
2021/07/17 09:20:59;;;;;;;12.43;6.68;;;;;;;24.73;63.75;102533.88;5014098;28;20034;-79
2021/07/17 09:23:29;;;;;;;13.50;6.95;;;;;;;24.96;63.06;102548.88;5025504;28;20132;-78
2021/07/17 09:25:55;;;;;;;10.65;6.70;;;;;;;25.05;62.74;102542.00;5013423;28;20361;-79
2021/07/17 09:28:30;;;;;;;13.07;7.15;;;;;;;25.14;62.80;102546.13;5017779;28;20941;-79
2021/07/17 09:30:59;;;;;;;14.48;7.07;;;;;;;25.23;62.77;102543.94;5012508;28;20029;-79
2021/07/17 09:33:26;;;;;;;12.10;6.72;;;;;;;25.19;62.99;102531.69;5027742;28;20403;-78
2021/07/17 09:35:53;;;;;;;13.15;7.40;;;;;;;25.25;62.69;102541.81;5019288;28;20109;-78
2021/07/17 09:38:20;;;;;;;13.40;7.13;;;;;;;25.36;62.44;102549.28;5018359;28;20376;-79
2021/07/17 09:40:55;;;;;;;11.98;6.63;;;;;;;25.32;62.34;102548.03;5018024;28;20022;-79
2021/07/17 09:43:25;;;;;;;9.25;6.18;;;;;;;25.31;61.70;102535.34;5015703;28;20025;-77
2021/07/17 09:45:50;;;;;;;11.38;7.05;;;;;;;25.40;61.44;102535.88;5017603;28;20037;-84
2021/07/17 09:48:36;;;;;;;15.77;6.70;;;;;;;25.61;60.44;102542.78;5004019;28;20038;-84
2021/07/17 09:51:01;;;;;;;10.45;5.50;;;;;;;25.72;59.94;102538.41;4996551;28;20026;-84
2021/07/17 09:53:41;;;;;;;12.27;6.45;;;;;;;25.97;58.65;102541.88;5020764;28;20057;-84
2021/07/17 09:56:15;;;;;;;8.98;5.30;;;;;;;26.01;57.77;102523.81;5018849;28;20034;-83
2021/07/17 09:58:41;;;;;;;12.50;5.05;;;;;;;26.22;57.75;102535.31;5009427;28;20081;-84
2021/07/17 10:01:17;;;;;;;10.55;5.43;;;;;;;26.34;57.01;102538.09;5014815;28;20036;-84
2021/07/17 10:03:42;;;;;;;10.73;5.15;;;;;;;26.44;56.86;102533.66;5014117;28;20114;-83
2021/07/17 10:06:09;;;;;;;12.45;5.25;;;;;;;26.47;56.24;102538.72;5017203;28;20058;-85
2021/07/17 10:08:35;;;;;;;10.45;5.30;;;;;;;26.48;56.06;102539.53;5015647;28;20403;-84
2021/07/17 10:11:14;;;;;;;8.88;4.90;;;;;;;26.53;55.51;102534.19;4998422;28;20036;-84
2021/07/17 10:13:40;;;;;;;8.35;4.80;;;;;;;26.78;55.07;102525.66;5024117;28;20028;-84
2021/07/17 10:16:32;;;;;;;10.98;5.05;;;;;;;26.94;54.77;102524.06;5012243;28;20044;-85
2021/07/17 10:18:57;;;;;;;;;;;;;;;27.04;54.21;102527.03;5009982;28;20042;-86
2021/07/17 10:21:23;;;;;;;10.50;4.90;;;;;;;27.03;54.38;102517.06;5007101;28;19969;-84
2021/07/17 10:23:49;;;;;;;9.27;3.95;;;;;;;27.22;52.87;102525.22;4998543;28;20029;-84
2021/07/17 10:26:15;;;;;;;7.97;4.55;;;;;;;27.18;53.26;102525.72;5014000;28;20022;-84
2021/07/17 10:28:40;;;;;;;7.57;4.20;;;;;;;27.24;53.03;102514.78;5013987;28;20393;-84
2021/07/17 10:31:06;;;;;;;8.77;4.15;;;;;;;27.35;53.37;102514.72;5013189;28;20036;-84
2021/07/17 10:33:33;;;;;;;9.32;4.65;;;;;;;27.46;53.83;102515.75;5010280;28;20697;-79
2021/07/17 10:36:03;;;;;;;6.90;4.10;;;;;;;27.54;52.44;102504.31;5011610;28;20108;-79
2021/07/17 10:38:29;;;;;;;8.85;4.55;;;;;;;27.68;52.74;102501.22;5011264;28;20018;-80
2021/07/17 10:40:55;;;;;;;12.93;4.40;;;;;;;27.70;51.91;102502.66;5010403;28;20029;-78
2021/07/17 10:43:22;;;;;;;6.85;4.13;;;;;;;27.81;51.20;102510.09;5026241;28;20042;-78
2021/07/17 10:45:47;;;;;;;9.50;4.25;;;;;;;27.89;51.08;102503.31;5008358;28;20102;-79
2021/07/17 10:48:26;;;;;;;8.90;4.35;;;;;;;28.06;50.55;102500.56;5006084;28;20109;-78
2021/07/17 10:50:52;;;;;;;7.55;4.32;;;;;;;28.12;49.62;102494.00;5007223;28;20053;-78
2021/07/17 10:53:43;;;;;;;10.55;4.25;;;;;;;28.25;48.84;102501.97;5007869;28;20384;-78
2021/07/17 10:56:27;;;;;;;9.15;4.43;;;;;;;28.45;49.51;102497.88;5007972;28;20108;-78
2021/07/17 10:58:57;;;;;;;8.88;4.28;;;;;;;28.74;47.91;102501.34;5011748;28;20033;-79
2021/07/17 11:01:23;;;;;;;6.18;4.15;;;;;;;28.80;47.69;102502.25;5006322;28;20681;-78
2021/07/17 11:03:49;;;;;;;5.47;3.75;;;;;;;28.96;48.42;102498.56;5008546;28;20017;-80
2021/07/17 11:06:24;;;;;;;8.02;4.25;;;;;;;29.13;47.10;102498.53;5009922;28;20034;-78
2021/07/17 11:08:50;;;;;;;8.50;3.50;;;;;;;29.17;46.21;102496.09;5008758;28;20041;-81
2021/07/17 11:11:28;;;;;;;9.07;4.13;;;;;;;28.44;46.86;102491.50;5012641;28;20026;-80
2021/07/17 11:14:18;;;;;;;6.97;3.55;;;;;;;27.93;48.46;102487.06;5013414;28;20049;-79
2021/07/17 11:16:48;;;;;;;10.13;4.30;;;;;;;27.41;50.17;102493.56;5014212;28;20026;-79
2021/07/17 11:19:13;;;;;;;11.10;3.90;;;;;;;27.51;49.75;102498.44;5013156;28;20487;-79
2021/07/17 11:21:40;;;;;;;7.30;3.42;;;;;;;27.81;48.83;102489.88;5010355;28;20033;-79
2021/07/17 11:24:06;;;;;;;9.27;3.85;;;;;;;28.00;48.33;102479.44;5007695;28;20032;-80